Time;durP1;ratioP1;P1;durP2;ratioP2;P2;SDS_P1;SDS_P2;PMS_P1;PMS_P2;Temp;Humidity;BMP_temperature;BMP_pressure;BME280_temperature;BME280_humidity;BME280_pressure;Samples;Min_cycle;Max_cycle;Signal;HPM_P1;HPM_P2
2022/09/08 00:01:48;;;;;;;12.10;10.23;;;17.40;83.80;;;;;;4937811;28;20066;-67
2022/09/08 00:04:14;;;;;;;13.13;11.13;;;17.40;83.80;;;;;;4912630;28;20111;-67
2022/09/08 00:06:40;;;;;;;12.67;11.03;;;17.40;83.60;;;;;;4933741;29;20114;-67
2022/09/08 00:09:06;;;;;;;11.57;10.20;;;17.40;83.60;;;;;;4914577;28;20302;-67
2022/09/08 00:11:33;;;;;;;14.43;11.07;;;17.40;83.60;;;;;;4937381;28;20275;-67
2022/09/08 00:14:04;;;;;;;12.60;10.67;;;17.40;83.70;;;;;;4929160;28;20457;-67
2022/09/08 00:16:30;;;;;;;14.20;11.13;;;17.40;83.50;;;;;;4925156;29;20286;-67
2022/09/08 00:18:56;;;;;;;10.93;9.83;;;17.30;83.80;;;;;;4938652;28;20290;-67
2022/09/08 00:21:27;;;;;;;14.53;10.93;;;17.30;83.80;;;;;;4937881;29;20278;-67
2022/09/08 00:23:53;;;;;;;12.00;10.70;;;17.30;84.00;;;;;;4934190;28;20531;-67
2022/09/08 00:26:20;;;;;;;13.70;11.07;;;17.30;84.00;;;;;;4935245;28;20812;-67
2022/09/08 00:28:46;;;;;;;12.43;10.80;;;17.30;84.00;;;;;;4933879;29;20334;-67
2022/09/08 00:31:13;;;;;;;12.87;11.53;;;17.30;84.00;;;;;;4932645;29;20279;-67
2022/09/08 00:33:39;;;;;;;12.67;11.00;;;17.30;84.10;;;;;;4900221;29;20279;-67
2022/09/08 00:36:05;;;;;;;11.43;9.90;;;17.20;84.10;;;;;;4930478;29;20621;-67
2022/09/08 00:38:31;;;;;;;13.57;11.17;;;17.20;84.10;;;;;;4940568;28;20047;-67
2022/09/08 00:40:58;;;;;;;16.70;11.00;;;17.20;84.30;;;;;;4931654;29;20058;-67
2022/09/08 00:43:45;;;;;;;12.77;10.80;;;17.20;84.30;;;;;;4906739;28;20286;-67
2022/09/08 00:46:14;;;;;;;12.23;10.90;;;17.20;84.10;;;;;;4923925;29;20589;-67
2022/09/08 00:48:54;;;;;;;10.97;9.80;;;17.20;84.10;;;;;;4927565;29;20697;-67
2022/09/08 00:51:22;;;;;;;12.50;10.73;;;17.20;84.20;;;;;;4915245;28;20299;-67
2022/09/08 00:53:48;;;;;;;13.10;11.63;;;17.10;84.10;;;;;;4929969;28;20278;-67
2022/09/08 00:56:16;;;;;;;11.73;10.53;;;17.10;84.30;;;;;;4915943;28;20353;-67
2022/09/08 00:58:42;;;;;;;11.87;10.67;;;17.20;84.20;;;;;;4912502;29;20286;-67
2022/09/08 01:01:09;;;;;;;12.63;10.57;;;17.20;84.20;;;;;;4925119;28;20716;-67
2022/09/08 01:03:37;;;;;;;13.77;11.43;;;17.10;84.20;;;;;;4928198;29;20336;-67
2022/09/08 01:12:43;;;;;;;15.70;12.37;;;17.10;84.20;;;;;;4926272;29;20307;-67
2022/09/08 01:12:44;;;;;;;14.43;12.80;;;17.00;84.60;;;;;;4936823;28;20337;-67
2022/09/08 01:15:30;;;;;;;14.93;12.73;;;17.00;84.80;;;;;;4933156;29;20341;-67
2022/09/08 01:17:56;;;;;;;14.07;12.40;;;17.00;84.60;;;;;;4932296;29;20305;-67
2022/09/08 01:21:04;;;;;;;14.57;12.90;;;17.00;84.60;;;;;;4916823;28;20279;-67
2022/09/08 01:24:04;;;;;;;17.83;13.87;;;17.00;84.70;;;;;;4932383;28;20275;-67
2022/09/08 01:26:41;;;;;;;16.33;13.67;;;17.00;84.70;;;;;;4928481;28;20313;-67
2022/09/08 01:29:09;;;;;;;17.93;15.53;;;17.00;84.70;;;;;;4911396;29;20275;-67
2022/09/08 01:31:39;;;;;;;16.37;14.60;;;17.00;85.00;;;;;;4926766;28;20274;-67
2022/09/08 01:34:05;;;;;;;18.30;16.30;;;17.00;85.00;;;;;;4941358;29;20290;-67
2022/09/08 01:36:31;;;;;;;17.60;15.80;;;17.00;85.20;;;;;;4924820;28;20681;-67
2022/09/08 01:38:57;;;;;;;20.50;16.63;;;17.00;85.50;;;;;;4931802;29;20369;-67
2022/09/08 01:41:23;;;;;;;20.13;17.63;;;17.00;85.50;;;;;;4933425;29;20302;-67
2022/09/08 01:43:49;;;;;;;20.00;17.87;;;17.00;85.60;;;;;;4903855;29;20043;-67
2022/09/08 01:46:14;;;;;;;20.20;18.10;;;17.00;85.40;;;;;;4900866;29;20051;-67
2022/09/08 01:48:40;;;;;;;21.63;19.00;;;17.00;85.40;;;;;;4931937;29;20054;-67
2022/09/08 01:51:08;;;;;;;24.27;19.50;;;17.00;85.50;;;;;;4915516;28;20047;-67
2022/09/08 01:53:35;;;;;;;23.20;19.57;;;17.00;85.70;;;;;;4932739;28;20122;-67
2022/09/08 01:56:01;;;;;;;23.07;20.07;;;17.00;85.60;;;;;;4937789;29;20874;-67
2022/09/08 01:58:27;;;;;;;23.17;20.33;;;17.00;85.70;;;;;;4910928;29;20411;-67
2022/09/08 02:00:54;;;;;;;25.10;19.33;;;17.00;85.80;;;;;;4926240;28;20348;-67
2022/09/08 02:03:19;;;;;;;23.67;20.40;;;17.00;85.90;;;;;;4936557;29;20274;-67
2022/09/08 02:05:45;;;;;;;23.87;19.80;;;17.00;85.80;;;;;;4905927;28;20820;-67
2022/09/08 02:08:12;;;;;;;23.53;20.47;;;17.00;85.90;;;;;;4916449;29;20086;-67
2022/09/08 02:10:38;;;;;;;23.93;20.53;;;17.00;85.80;;;;;;4914555;28;20294;-67
2022/09/08 02:13:05;;;;;;;26.53;22.23;;;17.00;85.80;;;;;;4936924;29;20417;-67
2022/09/08 02:15:31;;;;;;;27.07;22.03;;;17.00;86.00;;;;;;4920854;28;20910;-67
2022/09/08 02:17:57;;;;;;;25.47;21.40;;;17.00;85.90;;;;;;4914980;29;20288;-67
2022/09/08 02:20:24;;;;;;;26.93;22.53;;;17.00;86.00;;;;;;4909259;28;20273;-67
2022/09/08 02:22:51;;;;;;;28.60;23.60;;;17.00;86.20;;;;;;4914771;29;20370;-67
2022/09/08 02:25:17;;;;;;;26.33;22.43;;;17.10;86.10;;;;;;4899167;29;20306;-67
2022/09/08 02:27:43;;;;;;;26.97;22.90;;;17.00;86.20;;;;;;4916339;29;20287;-67
2022/09/08 02:30:09;;;;;;;29.73;23.47;;;17.10;86.20;;;;;;4927047;28;20047;-67
2022/09/08 02:32:35;;;;;;;25.33;22.30;;;17.10;86.20;;;;;;4934402;28;20046;-67
2022/09/08 02:35:01;;;;;;;29.13;24.37;;;17.10;86.20;;;;;;4919354;28;20283;-67
2022/09/08 02:37:27;;;;;;;31.00;24.67;;;17.10;86.40;;;;;;4917199;29;20751;-67
2022/09/08 02:39:53;;;;;;;30.10;23.93;;;17.10;86.40;;;;;;4912300;28;20386;-67
2022/09/08 02:42:19;;;;;;;30.33;23.97;;;17.10;86.30;;;;;;4920540;29;20359;-67
2022/09/08 02:44:44;;;;;;;28.13;24.73;;;17.10;86.20;;;;;;4900179;28;20043;-67
2022/09/08 02:47:10;;;;;;;24.90;22.20;;;17.10;86.20;;;;;;4915426;29;20048;-67
2022/09/08 02:49:36;;;;;;;27.10;23.97;;;17.10;86.30;;;;;;4906762;28;20130;-67
2022/09/08 02:52:02;;;;;;;28.90;24.30;;;17.10;86.30;;;;;;4915992;29;20043;-67
2022/09/08 02:54:28;;;;;;;26.13;22.77;;;17.10;86.30;;;;;;4928202;28;20049;-67
2022/09/08 02:56:54;;;;;;;28.60;25.10;;;17.10;86.50;;;;;;4914004;29;20283;-67
2022/09/08 02:59:20;;;;;;;28.10;24.53;;;17.10;86.40;;;;;;4899196;28;20052;-67
2022/09/08 03:01:46;;;;;;;27.30;24.30;;;17.10;86.40;;;;;;4918009;28;20364;-67
2022/09/08 03:04:12;;;;;;;29.50;25.00;;;17.10;86.50;;;;;;4935619;28;20059;-67
2022/09/08 03:06:39;;;;;;;29.97;24.47;;;17.10;86.40;;;;;;4921437;29;20318;-67
2022/09/08 03:09:05;;;;;;;29.40;24.80;;;17.10;86.50;;;;;;4920901;28;20295;-67
2022/09/08 03:11:32;;;;;;;28.93;24.67;;;17.10;86.50;;;;;;4923192;28;20282;-67
2022/09/08 03:13:59;;;;;;;31.67;26.00;;;17.10;86.40;;;;;;4935590;28;20282;-67
2022/09/08 03:16:26;;;;;;;32.53;25.33;;;17.10;86.60;;;;;;4909955;29;20602;-67
2022/09/08 03:18:52;;;;;;;28.73;24.93;;;17.10;86.50;;;;;;4902506;28;20298;-67
2022/09/08 03:21:18;;;;;;;32.23;25.97;;;17.10;86.70;;;;;;4934424;29;20290;-67
2022/09/08 03:23:44;;;;;;;31.87;26.03;;;17.10;86.60;;;;;;4919428;28;20486;-67
2022/09/08 03:26:12;;;;;;;29.60;24.77;;;17.10;86.60;;;;;;4912446;28;20412;-67
2022/09/08 03:28:38;;;;;;;29.07;25.93;;;17.10;86.60;;;;;;4938621;28;20886;-67
2022/09/08 03:31:14;;;;;;;30.40;25.23;;;17.10;86.40;;;;;;4934533;29;20616;-67
2022/09/08 03:33:40;;;;;;;31.60;26.00;;;17.10;86.60;;;;;;4927620;29;20043;-67
2022/09/08 03:36:08;;;;;;;28.67;25.33;;;17.10;86.50;;;;;;4929817;29;20648;-67
2022/09/08 03:38:35;;;;;;;31.90;26.53;;;17.10;86.50;;;;;;4931368;28;20789;-67
2022/09/08 03:41:06;;;;;;;31.90;26.10;;;17.10;86.80;;;;;;4926625;29;20300;-67
2022/09/08 03:43:31;;;;;;;29.93;26.30;;;17.10;86.80;;;;;;4921269;29;20298;-67
2022/09/08 03:45:57;;;;;;;30.57;25.87;;;17.10;86.70;;;;;;4924485;29;20309;-67
2022/09/08 03:48:23;;;;;;;28.93;24.63;;;17.10;86.80;;;;;;4905967;28;20404;-67
2022/09/08 03:50:49;;;;;;;29.17;25.57;;;17.10;86.70;;;;;;4934600;29;20050;-67
2022/09/08 03:53:14;;;;;;;30.27;25.53;;;17.10;86.90;;;;;;4903014;29;20055;-67
2022/09/08 03:55:42;;;;;;;32.17;26.80;;;17.10;86.90;;;;;;4917714;29;20050;-67
2022/09/08 03:58:10;;;;;;;32.07;26.60;;;17.10;86.90;;;;;;4915974;29;20047;-67
2022/09/08 04:00:38;;;;;;;32.40;27.97;;;17.10;86.90;;;;;;4933912;29;20390;-67
2022/09/08 04:03:04;;;;;;;34.73;27.47;;;17.10;86.80;;;;;;4942805;29;20286;-67
2022/09/08 04:05:31;;;;;;;32.57;27.47;;;17.10;86.90;;;;;;4933804;29;20909;-67
2022/09/08 04:07:57;;;;;;;33.47;27.73;;;17.20;86.80;;;;;;4933454;29;20054;-67
2022/09/08 04:10:23;;;;;;;33.00;28.77;;;17.20;86.90;;;;;;4922548;29;20292;-67
2022/09/08 04:12:49;;;;;;;36.03;30.03;;;17.20;86.90;;;;;;4941081;29;20058;-67
2022/09/08 04:15:15;;;;;;;33.17;29.00;;;17.20;87.20;;;;;;4903089;29;20054;-67
2022/09/08 04:17:41;;;;;;;37.07;29.87;;;17.20;87.20;;;;;;4902266;29;20288;-67
2022/09/08 04:20:08;;;;;;;37.07;29.70;;;17.20;87.20;;;;;;4926735;29;20408;-67
2022/09/08 04:22:34;;;;;;;35.83;30.20;;;17.20;87.00;;;;;;4927764;29;20047;-67
2022/09/08 04:25:01;;;;;;;35.87;29.00;;;17.20;87.30;;;;;;4926687;29;20635;-68
2022/09/08 04:27:26;;;;;;;38.80;27.13;;;17.20;87.30;;;;;;4931676;29;20044;-69
2022/09/08 04:29:52;;;;;;;30.20;23.97;;;17.20;87.50;;;;;;4892149;29;20294;-69
2022/09/08 04:32:19;;;;;;;29.77;23.10;;;17.20;87.70;;;;;;4933222;28;20397;-68
2022/09/08 04:34:47;;;;;;;27.20;21.30;;;17.20;88.30;;;;;;4897857;29;20055;-69
2022/09/08 04:37:13;;;;;;;29.20;21.70;;;17.20;88.30;;;;;;4925957;29;20868;-69
2022/09/08 04:39:38;;;;;;;30.03;22.53;;;17.10;88.60;;;;;;4933345;29;20676;-69
2022/09/08 04:42:04;;;;;;;29.00;22.70;;;17.00;88.60;;;;;;4919970;29;20295;-69
2022/09/08 04:44:30;;;;;;;29.40;22.57;;;17.00;88.70;;;;;;4926220;29;20050;-69
2022/09/08 04:46:56;;;;;;;30.77;24.57;;;16.90;89.10;;;;;;4911942;29;20054;-69
2022/09/08 04:49:22;;;;;;;33.17;25.17;;;16.90;89.70;;;;;;4906738;29;20164;-69
2022/09/08 04:51:50;;;;;;;29.53;24.43;;;16.90;89.90;;;;;;4915075;29;20044;-69
2022/09/08 04:54:16;;;;;;;28.47;22.23;;;16.80;90.00;;;;;;4900072;29;20472;-69
2022/09/08 04:56:41;;;;;;;27.80;22.10;;;16.80;89.80;;;;;;4917009;29;20933;-69
2022/09/08 04:59:07;;;;;;;30.73;23.07;;;16.80;90.30;;;;;;4899413;29;20288;-69
2022/09/08 05:01:37;;;;;;;29.23;23.00;;;16.70;90.90;;;;;;4907645;28;20047;-68
2022/09/08 05:04:03;;;;;;;27.50;21.67;;;16.60;91.20;;;;;;4915387;28;20056;-69
2022/09/08 05:06:31;;;;;;;28.50;22.07;;;16.60;91.30;;;;;;4916469;29;20311;-69
2022/09/08 05:08:58;;;;;;;30.67;22.47;;;16.60;91.10;;;;;;4926009;28;20278;-68
2022/09/08 05:11:26;;;;;;;24.90;19.90;;;16.70;90.90;;;;;;4913492;28;20274;-68
2022/09/08 05:13:52;;;;;;;24.13;18.97;;;16.70;91.50;;;;;;4907573;29;20278;-68
2022/09/08 05:16:20;;;;;;;20.60;15.33;;;16.70;91.70;;;;;;4895275;29;20290;-69
2022/09/08 05:18:51;;;;;;;22.77;16.30;;;16.70;91.20;;;;;;4913357;29;20679;-69
2022/09/08 05:21:18;;;;;;;22.20;16.67;;;16.70;91.00;;;;;;4921336;29;20279;-69
2022/09/08 05:23:44;;;;;;;21.97;16.43;;;16.60;91.00;;;;;;4925494;28;20287;-69
2022/09/08 05:26:13;;;;;;;21.77;15.77;;;16.60;91.10;;;;;;4910511;29;20303;-69
2022/09/08 05:28:40;;;;;;;25.20;16.67;;;16.60;91.30;;;;;;4903658;28;20283;-69
2022/09/08 05:31:07;;;;;;;18.93;15.67;;;16.60;91.60;;;;;;4911184;28;20358;-69
2022/09/08 05:33:34;;;;;;;19.27;14.60;;;16.60;91.40;;;;;;4914315;28;20294;-69
2022/09/08 05:36:00;;;;;;;17.27;12.10;;;16.50;91.50;;;;;;4915442;29;20369;-69
2022/09/08 05:38:26;;;;;;;14.57;10.60;;;16.50;91.70;;;;;;4903611;28;20299;-69
2022/09/08 05:40:52;;;;;;;15.73;11.43;;;16.50;91.60;;;;;;4912996;29;20668;-69
2022/09/08 05:43:18;;;;;;;14.47;10.83;;;16.40;91.70;;;;;;4909921;28;20054;-69
2022/09/08 05:45:46;;;;;;;18.60;13.43;;;16.50;91.90;;;;;;4912163;29;20143;-69
2022/09/08 05:48:11;;;;;;;18.97;13.50;;;16.50;92.40;;;;;;4911313;28;20596;-69
2022/09/08 05:50:44;;;;;;;18.20;12.80;;;16.50;92.30;;;;;;4914087;29;20290;-69
2022/09/08 05:53:12;;;;;;;18.10;12.40;;;16.50;92.50;;;;;;4928827;29;20039;-69
2022/09/08 05:55:39;;;;;;;17.67;13.23;;;16.40;92.70;;;;;;4930244;29;20289;-70
2022/09/08 05:58:04;;;;;;;23.23;13.20;;;16.40;93.10;;;;;;4914047;29;20799;-70
2022/09/08 06:00:37;;;;;;;21.17;13.47;;;16.40;93.20;;;;;;5083402;28;20377;-71
2022/09/08 06:03:03;;;;;;;20.07;14.57;;;16.40;93.10;;;;;;5054925;28;20311;-71
2022/09/08 06:05:29;;;;;;;23.60;15.93;;;16.30;93.40;;;;;;5045329;28;20456;-71
2022/09/08 06:07:54;;;;;;;24.50;16.70;;;16.30;94.00;;;;;;5044564;28;20036;-71
2022/09/08 06:10:20;;;;;;;29.87;17.37;;;16.30;94.60;;;;;;5063891;28;20041;-71
2022/09/08 06:12:46;;;;;;;29.93;17.30;;;16.30;95.10;;;;;;5047536;28;20521;-70
2022/09/08 06:15:12;;;;;;;29.90;18.07;;;16.30;95.50;;;;;;5057573;28;20040;-70
2022/09/08 06:17:38;;;;;;;31.20;17.83;;;16.30;95.60;;;;;;5029345;28;20466;-72
2022/09/08 06:20:05;;;;;;;33.57;18.20;;;16.30;96.00;;;;;;5065398;28;20411;-70
2022/09/08 06:22:32;;;;;;;24.33;15.97;;;16.30;96.40;;;;;;5053540;28;20632;-69
2022/09/08 06:24:59;;;;;;;25.97;16.30;;;16.30;96.80;;;;;;5050367;28;20289;-69
2022/09/08 06:27:56;;;;;;;32.50;16.60;;;16.20;96.90;;;;;;5028635;28;20760;-69
2022/09/08 06:30:21;;;;;;;22.83;15.50;;;16.20;97.60;;;;;;5071509;28;20275;-69
2022/09/08 06:32:48;;;;;;;28.57;16.30;;;16.20;97.80;;;;;;5042527;28;20349;-69
2022/09/08 06:35:17;;;;;;;24.27;14.23;;;16.20;98.10;;;;;;5066656;28;20044;-70
2022/09/08 06:37:49;;;;;;;24.33;13.23;;;16.10;98.60;;;;;;5069612;28;20298;-69
2022/09/08 06:40:30;;;;;;;17.63;10.80;;;16.10;98.80;;;;;;5052275;28;20941;-70
2022/09/08 06:43:18;;;;;;;8.37;6.70;;;16.00;99.30;;;;;;5063085;28;20367;-70
2022/09/08 06:45:52;;;;;;;10.07;6.63;;;15.90;99.10;;;;;;5046792;28;20286;-70
2022/09/08 06:48:21;;;;;;;8.53;6.70;;;15.80;99.20;;;;;;5054190;28;20283;-70
2022/09/08 06:51:11;;;;;;;13.47;10.57;;;15.70;99.60;;;;;;5046056;28;20361;-69
2022/09/08 06:53:43;;;;;;;10.60;8.53;;;15.70;99.90;;;;;;5029930;28;20275;-69
2022/09/08 06:56:38;;;;;;;11.67;8.23;;;15.70;99.90;;;;;;5031789;28;20433;-69
2022/09/08 06:59:32;;;;;;;16.45;9.18;;;15.70;99.90;;;;;;5038096;28;20357;-69
2022/09/08 07:02:07;;;;;;;14.30;8.90;;;15.70;99.90;;;;;;5043697;28;20067;-69
2022/09/08 07:05:04;;;;;;;16.77;9.18;;;15.70;99.90;;;;;;5036867;28;20708;-70
2022/09/08 07:07:41;;;;;;;13.80;9.27;;;15.70;99.90;;;;;;5016236;28;20045;-70
2022/09/08 07:10:16;;;;;;;9.23;6.57;;;15.70;99.90;;;;;;5014671;28;20327;-69
2022/09/08 07:13:01;;;;;;;10.57;6.88;;;15.60;99.90;;;;;;5010117;28;20792;-69
2022/09/08 07:15:32;;;;;;;10.93;6.07;;;15.60;99.90;;;;;;5027009;28;20045;-69
2022/09/08 07:18:19;;;;;;;9.03;6.07;;;15.60;99.90;;;;;;5020516;28;20057;-69
2022/09/08 07:20:45;;;;;;;8.77;5.97;;;15.60;99.90;;;;;;5025982;28;20777;-69
2022/09/08 07:23:24;;;;;;;8.43;5.97;;;15.60;99.90;;;;;;5009262;28;20383;-69
2022/09/08 07:26:15;;;;;;;8.63;6.00;;;15.60;99.90;;;;;;5018346;28;20044;-70
2022/09/08 07:28:47;;;;;;;11.23;7.00;;;15.60;99.90;;;;;;5033868;28;20298;-70
2022/09/08 07:31:21;;;;;;;8.37;5.60;;;15.50;99.90;;;;;;5034959;28;20283;-69
2022/09/08 07:33:52;;;;;;;9.70;5.55;;;15.50;99.90;;;;;;5007699;28;20824;-69
2022/09/08 07:36:33;;;;;;;11.37;6.00;;;15.50;99.90;;;;;;5034120;28;20067;-69
2022/09/08 07:39:11;;;;;;;7.87;5.17;;;15.50;99.90;;;;;;5025860;28;20841;-70
2022/09/08 07:41:44;;;;;;;13.33;6.83;;;15.50;99.90;;;;;;5028148;28;20403;-70
2022/09/08 07:44:15;;;;;;;10.70;5.87;;;15.60;99.90;;;;;;5024035;28;20379;-70
2022/09/08 07:46:58;;;;;;;9.20;5.90;;;15.60;99.90;;;;;;5007724;28;20330;-70
2022/09/08 07:49:36;;;;;;;8.17;5.50;;;15.70;99.90;;;;;;5026020;28;20280;-70
2022/09/08 07:52:44;;;;;;;8.50;5.50;;;15.70;99.90;;;;;;5016482;28;20363;-70
2022/09/08 07:55:38;;;;;;;12.10;6.00;;;15.70;99.90;;;;;;5024131;28;20933;-73
2022/09/08 07:58:30;;;;;;;10.13;5.87;;;15.70;99.90;;;;;;5030717;28;20326;-73
2022/09/08 08:01:06;;;;;;;8.87;5.73;;;15.70;99.90;;;;;;5033412;28;20883;-72
2022/09/08 08:03:56;;;;;;;8.33;5.47;;;15.70;99.90;;;;;;5037388;28;20641;-72
2022/09/08 08:06:44;;;;;;;9.47;5.63;;;15.70;99.90;;;;;;5012477;28;20598;-70
2022/09/08 08:09:15;;;;;;;10.53;6.13;;;15.70;99.90;;;;;;5022524;28;20296;-72
2022/09/08 08:11:59;;;;;;;9.40;5.73;;;15.80;99.90;;;;;;5009245;28;20764;-72
2022/09/08 08:14:52;;;;;;;11.20;5.53;;;15.80;99.90;;;;;;5017905;28;20776;-70
2022/09/08 08:17:56;;;;;;;12.57;5.33;;;15.90;99.90;;;;;;5025124;28;20659;-69
2022/09/08 08:20:30;;;;;;;17.87;6.30;;;15.90;99.90;;;;;;5013165;28;20298;-69
2022/09/08 08:23:05;;;;;;;7.95;4.65;;;15.90;99.90;;;;;;5029222;28;21239;-69
2022/09/08 08:25:51;;;;;;;8.98;6.07;;;15.90;99.90;;;;;;5033394;28;20488;-69
2022/09/08 08:28:19;;;;;;;9.10;6.40;;;16.00;99.90;;;;;;5011038;28;20432;-69
2022/09/08 08:31:08;;;;;;;11.47;5.57;;;16.00;99.90;;;;;;5024398;28;20779;-69
2022/09/08 08:33:38;;;;;;;8.60;5.50;;;16.10;99.90;;;;;;5024237;28;20803;-69
2022/09/08 08:36:06;;;;;;;9.80;6.00;;;16.10;99.90;;;;;;5025286;28;20783;-69
2022/09/08 08:38:38;;;;;;;9.00;5.10;;;16.00;99.90;;;;;;5008097;28;20288;-69
2022/09/08 08:41:33;;;;;;;8.03;4.60;;;16.10;99.90;;;;;;5028136;28;20338;-69
2022/09/08 08:44:32;;;;;;;9.40;4.97;;;16.00;99.90;;;;;;5030035;28;20703;-69
2022/09/08 08:47:20;;;;;;;6.67;3.73;;;16.00;99.90;;;;;;5021527;28;20283;-69
2022/09/08 08:50:00;;;;;;;5.37;3.67;;;16.00;99.90;;;;;;5024799;28;20338;-69
2022/09/08 08:52:52;;;;;;;5.70;3.37;;;16.00;99.90;;;;;;5011256;28;20811;-69
2022/09/08 08:55:52;;;;;;;5.30;2.93;;;16.00;99.90;;;;;;5027479;28;20279;-69
2022/09/08 08:58:23;;;;;;;4.07;2.70;;;15.90;99.90;;;;;;5032289;28;20772;-69
2022/09/08 09:01:24;;;;;;;3.70;2.67;;;15.90;99.90;;;;;;5031359;28;20289;-69
2022/09/08 09:04:08;;;;;;;5.57;2.53;;;15.90;99.90;;;;;;5002059;28;20373;-69
2022/09/08 09:07:08;;;;;;;5.43;2.87;;;15.80;99.90;;;;;;5021757;28;20488;-70
2022/09/08 09:09:51;;;;;;;4.27;2.60;;;15.80;99.90;;;;;;5021435;28;21012;-70
2022/09/08 09:12:53;;;;;;;3.70;2.63;;;15.80;99.90;;;;;;5023540;28;20319;-70
2022/09/08 09:15:19;;;;;;;3.93;1.90;;;15.80;99.90;;;;;;5033023;28;20280;-70
2022/09/08 09:18:11;;;;;;;4.67;1.80;;;15.80;99.90;;;;;;5031087;28;20283;-70
2022/09/08 09:20:49;;;;;;;3.93;1.60;;;15.70;99.90;;;;;;5012353;28;20053;-70
2022/09/08 09:23:42;;;;;;;3.50;1.77;;;15.70;99.90;;;;;;5027616;28;20306;-70
2022/09/08 09:26:21;;;;;;;3.37;1.50;;;15.70;99.90;;;;;;5029047;28;20280;-70
2022/09/08 09:29:13;;;;;;;2.87;1.63;;;15.70;99.90;;;;;;5029580;28;20695;-69
2022/09/08 09:31:47;;;;;;;3.33;2.00;;;15.70;99.90;;;;;;5015965;28;20287;-69
2022/09/08 09:34:31;;;;;;;4.65;2.53;;;15.70;99.90;;;;;;5024080;28;20284;-69
2022/09/08 09:37:33;;;;;;;3.57;2.47;;;15.80;99.90;;;;;;5022357;28;20099;-69
2022/09/08 09:40:18;;;;;;;4.63;2.30;;;15.80;99.90;;;;;;5018179;28;20308;-69
2022/09/08 09:43:06;;;;;;;5.50;2.78;;;15.90;99.90;;;;;;5025445;28;20733;-70
2022/09/08 09:46:07;;;;;;;3.90;2.43;;;16.00;99.90;;;;;;5007283;28;20084;-70
2022/09/08 09:48:35;;;;;;;3.53;3.03;;;16.00;99.90;;;;;;5012905;28;20288;-70
2022/09/08 09:51:11;;;;;;;6.10;2.60;;;16.00;99.90;;;;;;5024796;28;20312;-70
2022/09/08 09:54:00;;;;;;;4.77;2.70;;;16.00;99.90;;;;;;5007054;28;20276;-70
2022/09/08 09:56:48;;;;;;;6.13;3.10;;;16.00;99.90;;;;;;5032663;28;20403;-70
2022/09/08 09:59:42;;;;;;;6.73;3.73;;;16.00;99.90;;;;;;5013708;28;20374;-70
2022/09/08 10:02:32;;;;;;;4.47;3.47;;;16.10;99.90;;;;;;5017717;28;20874;-70
2022/09/08 10:05:22;;;;;;;4.03;3.27;;;16.10;99.90;;;;;;5023534;28;20268;-70
2022/09/08 10:08:09;;;;;;;4.20;3.23;;;16.10;99.90;;;;;;5027398;28;20342;-72
2022/09/08 10:10:53;;;;;;;5.33;3.47;;;16.10;99.90;;;;;;5004981;28;20304;-72
2022/09/08 10:13:43;;;;;;;7.03;3.93;;;16.00;99.90;;;;;;5024524;28;20277;-71
2022/09/08 10:16:20;;;;;;;4.17;3.10;;;16.00;99.90;;;;;;4982282;28;20288;-72
2022/09/08 10:19:09;;;;;;;6.37;3.43;;;16.00;99.90;;;;;;4990566;28;20764;-72
2022/09/08 10:21:50;;;;;;;8.50;4.30;;;16.00;99.90;;;;;;4984208;28;20375;-73
2022/09/08 10:24:25;;;;;;;11.83;4.60;;;16.00;99.90;;;;;;4988860;28;20282;-73
2022/09/08 10:27:10;;;;;;;11.52;4.32;;;16.00;99.90;;;;;;4944752;28;20787;-73
2022/09/08 10:29:57;;;;;;;6.23;2.53;;;16.00;99.90;;;;;;4988147;28;20042;-72
2022/09/08 10:32:28;;;;;;;6.83;2.10;;;15.90;99.90;;;;;;5001863;28;20297;-73
2022/09/08 10:35:25;;;;;;;3.17;1.10;;;15.90;99.90;;;;;;4971560;28;20845;-73
2022/09/08 10:37:54;;;;;;;3.80;1.10;;;16.00;99.90;;;;;;5017440;28;20348;-72
2022/09/08 10:40:47;;;;;;;2.80;0.63;;;16.00;99.90;;;;;;4994829;28;20336;-73
2022/09/08 10:43:34;;;;;;;3.17;0.77;;;16.00;99.90;;;;;;4990825;28;20697;-73
2022/09/08 10:46:37;;;;;;;2.23;0.60;;;16.00;99.90;;;;;;4995094;28;20808;-73
2022/09/08 10:49:41;;;;;;;1.23;0.53;;;16.00;99.90;;;;;;4994302;28;20277;-72
2022/09/08 10:52:25;;;;;;;2.33;0.90;;;16.00;99.90;;;;;;4978834;28;20300;-72
2022/09/08 10:55:27;;;;;;;2.27;0.50;;;16.00;99.90;;;;;;4996072;28;20362;-72
2022/09/08 10:58:30;;;;;;;1.20;0.40;;;16.00;99.90;;;;;;4980356;28;20311;-72
2022/09/08 11:01:27;;;;;;;2.40;0.50;;;16.00;99.90;;;;;;4990517;28;20326;-72
2022/09/08 11:04:33;;;;;;;2.30;0.43;;;16.10;99.90;;;;;;4996687;28;20957;-72
2022/09/08 11:07:22;;;;;;;2.25;0.60;;;16.10;99.90;;;;;;4994083;28;20307;-72
2022/09/08 11:09:53;;;;;;;1.77;0.63;;;16.10;99.90;;;;;;4994611;28;20061;-72
2022/09/08 11:12:25;;;;;;;2.20;0.60;;;16.30;99.90;;;;;;5031194;28;20277;-72
2022/09/08 11:15:11;;;;;;;3.63;0.80;;;16.40;99.90;;;;;;4991004;28;20746;-72
2022/09/08 11:17:46;;;;;;;2.47;0.60;;;16.40;99.90;;;;;;5003749;28;20325;-69
2022/09/08 11:20:37;;;;;;;1.80;0.70;;;16.50;99.90;;;;;;4987200;28;20290;-69
2022/09/08 11:23:56;;;;;;;1.90;0.80;;;16.70;99.90;;;;;;4985342;28;20285;-69
2022/09/08 11:26:37;;;;;;;2.67;0.60;;;16.80;99.90;;;;;;4959931;28;20282;-71
2022/09/08 11:29:10;;;;;;;2.13;0.80;;;17.00;99.90;;;;;;4982531;28;20442;-72
2022/09/08 11:32:07;;;;;;;4.73;0.93;;;17.00;99.90;;;;;;4988679;28;20297;-71
2022/09/08 11:34:33;;;;;;;3.00;1.10;;;17.10;99.90;;;;;;4985484;28;20293;-71
2022/09/08 11:37:18;;;;;;;5.23;1.33;;;17.10;99.90;;;;;;4985999;28;20364;-71
2022/09/08 11:39:58;;;;;;;3.65;2.00;;;17.20;99.90;;;;;;4963792;28;20081;-71
2022/09/08 11:42:55;;;;;;;3.50;2.17;;;17.20;99.90;;;;;;4985890;28;20442;-71
2022/09/08 11:45:56;;;;;;;5.73;3.33;;;17.20;99.90;;;;;;4986242;28;20646;-71
2022/09/08 11:48:38;;;;;;;8.53;3.70;;;17.20;99.90;;;;;;4986692;28;20770;-71
2022/09/08 11:51:04;;;;;;;6.37;3.30;;;17.20;99.90;;;;;;4969847;28;20296;-71
2022/09/08 11:54:04;;;;;;;7.37;3.87;;;17.20;99.90;;;;;;4987292;28;20789;-71
2022/09/08 11:56:58;;;;;;;5.97;4.23;;;17.30;99.90;;;;;;4984534;28;20606;-71
2022/09/08 11:59:36;;;;;;;7.40;4.70;;;17.30;99.90;;;;;;4984209;28;20403;-71
2022/09/08 12:02:06;;;;;;;7.93;5.80;;;17.20;99.90;;;;;;4981508;28;20343;-71
2022/09/08 12:05:11;;;;;;;7.33;5.30;;;17.20;99.90;;;;;;4989473;28;20824;-71
2022/09/08 12:08:14;;;;;;;11.68;5.32;;;17.20;99.90;;;;;;4999191;28;20917;-71
2022/09/08 12:11:01;;;;;;;8.80;6.20;;;17.20;99.90;;;;;;4984997;28;20056;-71
2022/09/08 12:13:50;;;;;;;9.27;6.60;;;17.30;99.90;;;;;;5027831;28;20324;-71
2022/09/08 12:16:57;;;;;;;9.57;7.10;;;17.50;99.90;;;;;;4992496;28;20280;-71
2022/09/08 12:19:35;;;;;;;12.87;7.90;;;17.60;99.90;;;;;;4993737;28;20380;-71
2022/09/08 12:22:24;;;;;;;12.20;7.27;;;17.70;99.90;;;;;;5009737;28;20091;-71
2022/09/08 12:25:17;;;;;;;21.40;8.77;;;17.70;99.90;;;;;;4985052;28;20313;-71
2022/09/08 12:28:18;;;;;;;23.13;10.37;;;17.80;99.90;;;;;;5001666;28;20289;-71
2022/09/08 12:31:04;;;;;;;27.63;10.50;;;17.80;99.90;;;;;;4974389;28;20293;-71
2022/09/08 12:33:58;;;;;;;14.80;8.30;;;17.90;99.90;;;;;;4986702;28;20395;-71
2022/09/08 12:37:02;;;;;;;14.53;9.07;;;17.90;99.90;;;;;;4984974;28;20791;-71
2022/09/08 12:40:19;;;;;;;15.37;10.50;;;18.00;99.90;;;;;;4971079;28;20310;-71
2022/09/08 12:42:51;;;;;;;13.40;10.47;;;18.00;99.90;;;;;;5001623;28;20045;-71
2022/09/08 12:45:21;;;;;;;14.97;10.33;;;18.00;99.90;;;;;;4984909;28;20050;-71
2022/09/08 12:48:04;;;;;;;14.30;9.60;;;18.10;99.90;;;;;;4960946;28;20085;-71
2022/09/08 12:51:00;;;;;;;19.47;11.03;;;18.20;99.90;;;;;;4976633;28;20050;-71
2022/09/08 12:53:37;;;;;;;15.82;10.30;;;18.30;99.90;;;;;;5000694;28;20041;-71
2022/09/08 12:56:20;;;;;;;12.50;9.73;;;18.30;99.90;;;;;;4978544;28;20038;-71
2022/09/08 12:59:18;;;;;;;14.67;11.00;;;18.40;99.90;;;;;;4985316;28;20480;-71
2022/09/08 13:02:12;;;;;;;15.93;10.50;;;18.40;99.90;;;;;;4969931;28;20064;-71
2022/09/08 13:04:37;;;;;;;14.63;10.17;;;18.50;99.90;;;;;;4984920;28;20474;-71
2022/09/08 13:07:15;;;;;;;13.67;9.83;;;18.70;99.90;;;;;;4970919;28;20074;-71
2022/09/08 13:09:57;;;;;;;15.03;10.27;;;18.70;99.90;;;;;;4996603;28;20042;-71
2022/09/08 13:12:23;;;;;;;15.00;10.73;;;18.80;99.90;;;;;;4963311;28;20082;-71
2022/09/08 13:15:03;;;;;;;14.50;10.20;;;18.90;99.90;;;;;;4990930;28;20578;-71
2022/09/08 13:17:49;;;;;;;11.97;9.10;;;19.00;99.90;;;;;;5004117;28;20045;-71
2022/09/08 13:20:33;;;;;;;;;;;19.00;99.90;;;;;;4965973;28;20049;-71
2022/09/08 13:23:11;;;;;;;12.23;8.70;;;18.90;99.90;;;;;;4990643;28;19922;-71
2022/09/08 13:26:10;;;;;;;14.00;9.17;;;18.90;99.90;;;;;;4988916;28;20108;-71